sensor_id;sensor_type;location;lat;lon;timestamp;P1;durP1;ratioP1;P2;durP2;ratioP2
6356;SDS011;3211;53.452;-2.264;2023-03-12T00:01:10;3.20;;;2.50;;
6356;SDS011;3211;53.452;-2.264;2023-03-12T00:03:38;2.60;;;2.40;;
6356;SDS011;3211;53.452;-2.264;2023-03-12T00:06:05;3.13;;;2.87;;
6356;SDS011;3211;53.452;-2.264;2023-03-12T00:08:32;2.50;;;2.30;;
6356;SDS011;3211;53.452;-2.264;2023-03-12T00:10:59;3.07;;;2.80;;
6356;SDS011;3211;53.452;-2.264;2023-03-12T00:13:31;3.27;;;2.97;;
6356;SDS011;3211;53.452;-2.264;2023-03-12T00:16:01;3.37;;;3.07;;
6356;SDS011;3211;53.452;-2.264;2023-03-12T00:18:30;3.60;;;3.30;;
6356;SDS011;3211;53.452;-2.264;2023-03-12T00:20:57;4.10;;;3.70;;
6356;SDS011;3211;53.452;-2.264;2023-03-12T00:23:24;5.70;;;3.93;;
6356;SDS011;3211;53.452;-2.264;2023-03-12T00:25:51;5.53;;;3.97;;
6356;SDS011;3211;53.452;-2.264;2023-03-12T00:28:18;4.50;;;3.97;;
6356;SDS011;3211;53.452;-2.264;2023-03-12T00:30:46;3.90;;;3.13;;
6356;SDS011;3211;53.452;-2.264;2023-03-12T00:33:13;4.10;;;3.50;;
6356;SDS011;3211;53.452;-2.264;2023-03-12T00:35:40;4.07;;;3.60;;
6356;SDS011;3211;53.452;-2.264;2023-03-12T00:38:07;3.83;;;3.53;;
6356;SDS011;3211;53.452;-2.264;2023-03-12T00:40:34;3.97;;;3.67;;
6356;SDS011;3211;53.452;-2.264;2023-03-12T00:43:01;4.60;;;4.13;;
6356;SDS011;3211;53.452;-2.264;2023-03-12T00:45:28;4.30;;;3.90;;
6356;SDS011;3211;53.452;-2.264;2023-03-12T00:47:56;4.73;;;4.20;;
6356;SDS011;3211;53.452;-2.264;2023-03-12T00:50:23;4.63;;;4.23;;
6356;SDS011;3211;53.452;-2.264;2023-03-12T00:52:50;5.83;;;4.30;;
6356;SDS011;3211;53.452;-2.264;2023-03-12T00:55:17;4.93;;;4.43;;
6356;SDS011;3211;53.452;-2.264;2023-03-12T00:57:44;4.70;;;4.30;;
6356;SDS011;3211;53.452;-2.264;2023-03-12T01:00:11;5.50;;;4.43;;
6356;SDS011;3211;53.452;-2.264;2023-03-12T01:02:39;5.83;;;4.80;;
6356;SDS011;3211;53.452;-2.264;2023-03-12T01:05:09;5.60;;;5.10;;
6356;SDS011;3211;53.452;-2.264;2023-03-12T01:07:37;6.40;;;5.50;;
6356;SDS011;3211;53.452;-2.264;2023-03-12T01:10:04;6.40;;;5.70;;
6356;SDS011;3211;53.452;-2.264;2023-03-12T01:12:33;6.97;;;6.27;;
6356;SDS011;3211;53.452;-2.264;2023-03-12T01:15:00;7.73;;;5.90;;
6356;SDS011;3211;53.452;-2.264;2023-03-12T01:17:27;6.17;;;5.57;;
6356;SDS011;3211;53.452;-2.264;2023-03-12T01:19:54;7.17;;;6.47;;
6356;SDS011;3211;53.452;-2.264;2023-03-12T01:22:22;7.23;;;6.23;;
6356;SDS011;3211;53.452;-2.264;2023-03-12T01:24:49;7.17;;;6.47;;
6356;SDS011;3211;53.452;-2.264;2023-03-12T01:27:16;8.30;;;6.90;;
6356;SDS011;3211;53.452;-2.264;2023-03-12T01:29:44;9.67;;;7.40;;
6356;SDS011;3211;53.452;-2.264;2023-03-12T01:32:11;10.40;;;6.80;;
6356;SDS011;3211;53.452;-2.264;2023-03-12T01:34:38;7.83;;;7.03;;
6356;SDS011;3211;53.452;-2.264;2023-03-12T01:37:05;7.73;;;6.87;;
6356;SDS011;3211;53.452;-2.264;2023-03-12T01:39:34;9.23;;;7.10;;
6356;SDS011;3211;53.452;-2.264;2023-03-12T01:42:01;7.80;;;6.93;;
6356;SDS011;3211;53.452;-2.264;2023-03-12T01:44:28;9.10;;;7.10;;
6356;SDS011;3211;53.452;-2.264;2023-03-12T01:46:55;7.97;;;6.83;;
6356;SDS011;3211;53.452;-2.264;2023-03-12T01:49:23;8.40;;;7.37;;
6356;SDS011;3211;53.452;-2.264;2023-03-12T01:51:53;8.50;;;7.53;;
6356;SDS011;3211;53.452;-2.264;2023-03-12T01:54:25;7.97;;;6.83;;
6356;SDS011;3211;53.452;-2.264;2023-03-12T01:56:58;9.53;;;7.40;;
6356;SDS011;3211;53.452;-2.264;2023-03-12T01:59:29;8.60;;;7.13;;
6356;SDS011;3211;53.452;-2.264;2023-03-12T02:01:58;11.60;;;7.60;;
6356;SDS011;3211;53.452;-2.264;2023-03-12T02:04:28;7.80;;;7.10;;
6356;SDS011;3211;53.452;-2.264;2023-03-12T02:07:17;9.93;;;7.60;;
6356;SDS011;3211;53.452;-2.264;2023-03-12T02:09:46;10.47;;;7.77;;
6356;SDS011;3211;53.452;-2.264;2023-03-12T02:12:15;9.70;;;8.20;;
6356;SDS011;3211;53.452;-2.264;2023-03-12T02:14:42;10.80;;;7.90;;
6356;SDS011;3211;53.452;-2.264;2023-03-12T02:17:10;11.90;;;8.53;;
6356;SDS011;3211;53.452;-2.264;2023-03-12T02:19:40;10.60;;;8.57;;
6356;SDS011;3211;53.452;-2.264;2023-03-12T02:22:11;12.10;;;7.70;;
6356;SDS011;3211;53.452;-2.264;2023-03-12T02:24:40;11.40;;;8.87;;
6356;SDS011;3211;53.452;-2.264;2023-03-12T02:27:12;8.23;;;7.43;;
6356;SDS011;3211;53.452;-2.264;2023-03-12T02:29:41;8.37;;;7.30;;
6356;SDS011;3211;53.452;-2.264;2023-03-12T02:32:11;9.37;;;7.43;;
6356;SDS011;3211;53.452;-2.264;2023-03-12T02:34:45;9.33;;;7.50;;
6356;SDS011;3211;53.452;-2.264;2023-03-12T02:37:12;16.30;;;10.30;;
6356;SDS011;3211;53.452;-2.264;2023-03-12T02:39:39;11.27;;;8.70;;
6356;SDS011;3211;53.452;-2.264;2023-03-12T02:42:07;9.60;;;8.13;;
6356;SDS011;3211;53.452;-2.264;2023-03-12T02:44:36;11.60;;;9.30;;
6356;SDS011;3211;53.452;-2.264;2023-03-12T02:47:03;11.57;;;9.40;;
6356;SDS011;3211;53.452;-2.264;2023-03-12T02:49:31;13.60;;;10.00;;
6356;SDS011;3211;53.452;-2.264;2023-03-12T02:51:59;14.60;;;10.80;;
6356;SDS011;3211;53.452;-2.264;2023-03-12T02:54:26;15.30;;;10.37;;
6356;SDS011;3211;53.452;-2.264;2023-03-12T02:56:53;10.10;;;8.13;;
6356;SDS011;3211;53.452;-2.264;2023-03-12T02:59:21;10.57;;;8.00;;
6356;SDS011;3211;53.452;-2.264;2023-03-12T03:01:52;9.77;;;8.33;;
6356;SDS011;3211;53.452;-2.264;2023-03-12T03:04:20;12.83;;;9.17;;
6356;SDS011;3211;53.452;-2.264;2023-03-12T03:06:48;15.67;;;8.50;;
6356;SDS011;3211;53.452;-2.264;2023-03-12T03:09:15;11.10;;;8.33;;
6356;SDS011;3211;53.452;-2.264;2023-03-12T03:11:43;13.73;;;8.67;;
6356;SDS011;3211;53.452;-2.264;2023-03-12T03:14:10;13.53;;;8.50;;
6356;SDS011;3211;53.452;-2.264;2023-03-12T03:16:37;20.30;;;11.20;;
6356;SDS011;3211;53.452;-2.264;2023-03-12T03:19:05;10.90;;;7.30;;
6356;SDS011;3211;53.452;-2.264;2023-03-12T03:21:34;9.33;;;5.93;;
6356;SDS011;3211;53.452;-2.264;2023-03-12T03:24:01;15.13;;;6.73;;
6356;SDS011;3211;53.452;-2.264;2023-03-12T03:26:28;11.40;;;6.30;;
6356;SDS011;3211;53.452;-2.264;2023-03-12T03:28:55;7.50;;;5.60;;
6356;SDS011;3211;53.452;-2.264;2023-03-12T03:31:22;12.30;;;7.63;;
6356;SDS011;3211;53.452;-2.264;2023-03-12T03:33:49;10.70;;;5.60;;
6356;SDS011;3211;53.452;-2.264;2023-03-12T03:36:17;9.10;;;5.90;;
6356;SDS011;3211;53.452;-2.264;2023-03-12T03:38:45;8.67;;;5.40;;
6356;SDS011;3211;53.452;-2.264;2023-03-12T03:41:14;9.27;;;5.83;;
6356;SDS011;3211;53.452;-2.264;2023-03-12T03:43:41;14.57;;;5.63;;
6356;SDS011;3211;53.452;-2.264;2023-03-12T03:46:09;16.33;;;5.20;;
6356;SDS011;3211;53.452;-2.264;2023-03-12T03:48:37;11.03;;;5.33;;
6356;SDS011;3211;53.452;-2.264;2023-03-12T03:51:05;11.80;;;5.10;;
6356;SDS011;3211;53.452;-2.264;2023-03-12T03:53:34;10.00;;;5.63;;
6356;SDS011;3211;53.452;-2.264;2023-03-12T03:56:05;13.47;;;5.43;;
6356;SDS011;3211;53.452;-2.264;2023-03-12T03:58:33;9.93;;;5.40;;
6356;SDS011;3211;53.452;-2.264;2023-03-12T04:01:00;13.03;;;6.37;;
6356;SDS011;3211;53.452;-2.264;2023-03-12T04:03:27;11.23;;;5.00;;
6356;SDS011;3211;53.452;-2.264;2023-03-12T04:05:54;9.90;;;4.90;;
6356;SDS011;3211;53.452;-2.264;2023-03-12T04:08:21;12.23;;;5.40;;
6356;SDS011;3211;53.452;-2.264;2023-03-12T04:10:50;8.57;;;5.17;;
6356;SDS011;3211;53.452;-2.264;2023-03-12T04:13:17;11.10;;;6.07;;
6356;SDS011;3211;53.452;-2.264;2023-03-12T04:15:45;12.63;;;4.93;;
6356;SDS011;3211;53.452;-2.264;2023-03-12T04:18:13;17.10;;;6.27;;
6356;SDS011;3211;53.452;-2.264;2023-03-12T04:20:40;11.10;;;4.77;;
6356;SDS011;3211;53.452;-2.264;2023-03-12T04:23:06;12.80;;;4.97;;
6356;SDS011;3211;53.452;-2.264;2023-03-12T04:25:33;16.70;;;5.10;;
6356;SDS011;3211;53.452;-2.264;2023-03-12T04:28:02;10.57;;;4.83;;
6356;SDS011;3211;53.452;-2.264;2023-03-12T04:30:29;12.33;;;5.27;;
6356;SDS011;3211;53.452;-2.264;2023-03-12T04:32:56;14.80;;;4.80;;
6356;SDS011;3211;53.452;-2.264;2023-03-12T04:35:24;12.00;;;4.53;;
6356;SDS011;3211;53.452;-2.264;2023-03-12T04:37:50;11.33;;;4.87;;
6356;SDS011;3211;53.452;-2.264;2023-03-12T04:40:17;15.77;;;4.60;;
6356;SDS011;3211;53.452;-2.264;2023-03-12T04:42:44;12.93;;;4.40;;
6356;SDS011;3211;53.452;-2.264;2023-03-12T04:45:13;14.97;;;5.33;;
6356;SDS011;3211;53.452;-2.264;2023-03-12T04:47:40;14.60;;;4.70;;
6356;SDS011;3211;53.452;-2.264;2023-03-12T04:50:08;9.43;;;4.70;;
6356;SDS011;3211;53.452;-2.264;2023-03-12T04:52:36;18.97;;;5.07;;
6356;SDS011;3211;53.452;-2.264;2023-03-12T04:55:03;16.37;;;4.70;;
6356;SDS011;3211;53.452;-2.264;2023-03-12T04:57:31;10.63;;;3.90;;
6356;SDS011;3211;53.452;-2.264;2023-03-12T04:59:58;17.20;;;5.70;;
6356;SDS011;3211;53.452;-2.264;2023-03-12T05:02:26;21.00;;;4.43;;
6356;SDS011;3211;53.452;-2.264;2023-03-12T05:04:54;14.10;;;3.90;;
6356;SDS011;3211;53.452;-2.264;2023-03-12T05:07:21;14.27;;;3.53;;
6356;SDS011;3211;53.452;-2.264;2023-03-12T05:09:48;23.50;;;5.20;;
6356;SDS011;3211;53.452;-2.264;2023-03-12T05:12:15;21.40;;;5.37;;
6356;SDS011;3211;53.452;-2.264;2023-03-12T05:14:42;17.10;;;3.93;;
6356;SDS011;3211;53.452;-2.264;2023-03-12T05:17:09;16.70;;;3.10;;
6356;SDS011;3211;53.452;-2.264;2023-03-12T05:19:37;19.03;;;4.00;;
6356;SDS011;3211;53.452;-2.264;2023-03-12T05:22:04;17.50;;;3.50;;
6356;SDS011;3211;53.452;-2.264;2023-03-12T05:24:31;24.47;;;4.23;;
6356;SDS011;3211;53.452;-2.264;2023-03-12T05:26:58;28.97;;;3.70;;
6356;SDS011;3211;53.452;-2.264;2023-03-12T05:29:25;23.27;;;6.00;;
6356;SDS011;3211;53.452;-2.264;2023-03-12T05:31:53;16.57;;;4.10;;
6356;SDS011;3211;53.452;-2.264;2023-03-12T05:34:20;20.37;;;4.60;;
6356;SDS011;3211;53.452;-2.264;2023-03-12T05:36:48;18.47;;;3.80;;
6356;SDS011;3211;53.452;-2.264;2023-03-12T05:39:15;12.63;;;3.90;;
6356;SDS011;3211;53.452;-2.264;2023-03-12T05:41:42;23.47;;;4.40;;
6356;SDS011;3211;53.452;-2.264;2023-03-12T05:44:10;18.17;;;3.70;;
6356;SDS011;3211;53.452;-2.264;2023-03-12T05:46:40;14.37;;;4.13;;
6356;SDS011;3211;53.452;-2.264;2023-03-12T05:49:07;26.80;;;4.80;;
6356;SDS011;3211;53.452;-2.264;2023-03-12T05:51:34;14.13;;;3.70;;
6356;SDS011;3211;53.452;-2.264;2023-03-12T05:54:02;17.40;;;3.53;;
6356;SDS011;3211;53.452;-2.264;2023-03-12T05:56:29;17.50;;;4.40;;
6356;SDS011;3211;53.452;-2.264;2023-03-12T05:58:56;17.77;;;3.57;;
6356;SDS011;3211;53.452;-2.264;2023-03-12T06:01:24;15.30;;;4.60;;
6356;SDS011;3211;53.452;-2.264;2023-03-12T06:03:53;21.40;;;4.90;;
6356;SDS011;3211;53.452;-2.264;2023-03-12T06:06:20;19.03;;;4.50;;
6356;SDS011;3211;53.452;-2.264;2023-03-12T06:08:47;24.40;;;4.73;;
6356;SDS011;3211;53.452;-2.264;2023-03-12T06:11:17;17.13;;;4.17;;
6356;SDS011;3211;53.452;-2.264;2023-03-12T06:13:44;26.03;;;4.80;;
6356;SDS011;3211;53.452;-2.264;2023-03-12T06:16:12;12.73;;;3.60;;
6356;SDS011;3211;53.452;-2.264;2023-03-12T06:18:41;30.93;;;4.17;;
6356;SDS011;3211;53.452;-2.264;2023-03-12T06:21:10;21.70;;;4.50;;
6356;SDS011;3211;53.452;-2.264;2023-03-12T06:23:38;27.87;;;4.20;;
6356;SDS011;3211;53.452;-2.264;2023-03-12T06:26:05;30.67;;;5.40;;
6356;SDS011;3211;53.452;-2.264;2023-03-12T06:28:34;20.77;;;4.60;;
6356;SDS011;3211;53.452;-2.264;2023-03-12T06:31:01;21.20;;;3.83;;
6356;SDS011;3211;53.452;-2.264;2023-03-12T06:33:28;27.10;;;5.00;;
6356;SDS011;3211;53.452;-2.264;2023-03-12T06:35:56;32.20;;;5.23;;
6356;SDS011;3211;53.452;-2.264;2023-03-12T06:38:24;16.53;;;4.37;;
6356;SDS011;3211;53.452;-2.264;2023-03-12T06:40:52;23.90;;;6.53;;
6356;SDS011;3211;53.452;-2.264;2023-03-12T06:43:20;26.47;;;5.17;;
6356;SDS011;3211;53.452;-2.264;2023-03-12T06:45:49;22.23;;;5.77;;
6356;SDS011;3211;53.452;-2.264;2023-03-12T06:48:16;21.80;;;4.73;;
6356;SDS011;3211;53.452;-2.264;2023-03-12T06:50:43;29.53;;;4.60;;
6356;SDS011;3211;53.452;-2.264;2023-03-12T06:53:10;24.03;;;4.63;;
6356;SDS011;3211;53.452;-2.264;2023-03-12T06:55:37;19.53;;;4.20;;
6356;SDS011;3211;53.452;-2.264;2023-03-12T06:58:04;22.40;;;4.80;;
6356;SDS011;3211;53.452;-2.264;2023-03-12T07:00:31;21.10;;;4.03;;
6356;SDS011;3211;53.452;-2.264;2023-03-12T07:03:00;16.40;;;4.40;;
6356;SDS011;3211;53.452;-2.264;2023-03-12T07:05:27;19.53;;;4.50;;
6356;SDS011;3211;53.452;-2.264;2023-03-12T07:07:55;30.97;;;5.20;;
6356;SDS011;3211;53.452;-2.264;2023-03-12T07:10:22;19.87;;;5.23;;
6356;SDS011;3211;53.452;-2.264;2023-03-12T07:12:49;23.00;;;5.03;;
6356;SDS011;3211;53.452;-2.264;2023-03-12T07:15:16;25.23;;;4.33;;
6356;SDS011;3211;53.452;-2.264;2023-03-12T07:17:43;24.23;;;4.97;;
6356;SDS011;3211;53.452;-2.264;2023-03-12T07:20:11;18.10;;;4.37;;
6356;SDS011;3211;53.452;-2.264;2023-03-12T07:22:38;21.67;;;4.63;;
6356;SDS011;3211;53.452;-2.264;2023-03-12T07:25:07;26.57;;;5.03;;
6356;SDS011;3211;53.452;-2.264;2023-03-12T07:27:35;26.57;;;5.20;;
6356;SDS011;3211;53.452;-2.264;2023-03-12T07:30:02;18.63;;;4.80;;
6356;SDS011;3211;53.452;-2.264;2023-03-12T07:32:29;23.10;;;6.40;;
6356;SDS011;3211;53.452;-2.264;2023-03-12T07:34:57;18.03;;;4.20;;
6356;SDS011;3211;53.452;-2.264;2023-03-12T07:37:25;21.33;;;4.80;;
6356;SDS011;3211;53.452;-2.264;2023-03-12T07:39:52;22.13;;;5.10;;
6356;SDS011;3211;53.452;-2.264;2023-03-12T07:42:20;13.57;;;3.80;;
6356;SDS011;3211;53.452;-2.264;2023-03-12T07:44:47;19.83;;;4.13;;
6356;SDS011;3211;53.452;-2.264;2023-03-12T07:47:14;18.33;;;5.00;;
6356;SDS011;3211;53.452;-2.264;2023-03-12T07:49:41;13.93;;;4.03;;
6356;SDS011;3211;53.452;-2.264;2023-03-12T07:52:08;22.00;;;4.40;;
6356;SDS011;3211;53.452;-2.264;2023-03-12T07:54:37;25.40;;;5.20;;
6356;SDS011;3211;53.452;-2.264;2023-03-12T07:57:04;20.23;;;4.00;;
6356;SDS011;3211;53.452;-2.264;2023-03-12T07:59:31;25.10;;;5.83;;
6356;SDS011;3211;53.452;-2.264;2023-03-12T08:01:58;25.47;;;6.53;;
6356;SDS011;3211;53.452;-2.264;2023-03-12T08:04:25;28.70;;;5.00;;
6356;SDS011;3211;53.452;-2.264;2023-03-12T08:06:52;22.60;;;4.93;;
6356;SDS011;3211;53.452;-2.264;2023-03-12T08:09:20;30.10;;;5.27;;
6356;SDS011;3211;53.452;-2.264;2023-03-12T08:11:48;16.60;;;5.00;;
6356;SDS011;3211;53.452;-2.264;2023-03-12T08:14:15;16.80;;;4.60;;
6356;SDS011;3211;53.452;-2.264;2023-03-12T08:16:42;26.27;;;6.40;;
6356;SDS011;3211;53.452;-2.264;2023-03-12T08:19:09;23.63;;;4.30;;
6356;SDS011;3211;53.452;-2.264;2023-03-12T08:21:36;21.57;;;4.40;;
6356;SDS011;3211;53.452;-2.264;2023-03-12T08:24:02;25.23;;;4.93;;
6356;SDS011;3211;53.452;-2.264;2023-03-12T08:26:29;24.27;;;5.20;;
6356;SDS011;3211;53.452;-2.264;2023-03-12T08:28:58;21.23;;;4.63;;
6356;SDS011;3211;53.452;-2.264;2023-03-12T08:31:25;26.13;;;4.70;;
6356;SDS011;3211;53.452;-2.264;2023-03-12T08:33:52;31.47;;;6.77;;
6356;SDS011;3211;53.452;-2.264;2023-03-12T08:36:19;20.60;;;4.50;;
6356;SDS011;3211;53.452;-2.264;2023-03-12T08:38:46;24.07;;;5.20;;
6356;SDS011;3211;53.452;-2.264;2023-03-12T08:41:13;17.17;;;4.73;;
6356;SDS011;3211;53.452;-2.264;2023-03-12T08:43:40;28.83;;;5.00;;
6356;SDS011;3211;53.452;-2.264;2023-03-12T08:46:08;22.83;;;5.37;;
6356;SDS011;3211;53.452;-2.264;2023-03-12T08:48:35;15.23;;;4.50;;
6356;SDS011;3211;53.452;-2.264;2023-03-12T08:51:02;21.93;;;3.77;;
6356;SDS011;3211;53.452;-2.264;2023-03-12T08:53:32;24.73;;;5.50;;
6356;SDS011;3211;53.452;-2.264;2023-03-12T08:55:59;21.30;;;6.10;;
6356;SDS011;3211;53.452;-2.264;2023-03-12T08:58:27;38.57;;;6.40;;
6356;SDS011;3211;53.452;-2.264;2023-03-12T09:00:54;23.73;;;5.40;;
6356;SDS011;3211;53.452;-2.264;2023-03-12T09:03:24;23.33;;;5.17;;
6356;SDS011;3211;53.452;-2.264;2023-03-12T09:06:00;23.43;;;4.77;;
6356;SDS011;3211;53.452;-2.264;2023-03-12T09:08:28;23.33;;;4.67;;
6356;SDS011;3211;53.452;-2.264;2023-03-12T09:10:58;26.40;;;5.17;;
6356;SDS011;3211;53.452;-2.264;2023-03-12T09:13:25;21.63;;;5.13;;
6356;SDS011;3211;53.452;-2.264;2023-03-12T09:15:57;26.93;;;6.20;;
6356;SDS011;3211;53.452;-2.264;2023-03-12T09:18:26;22.67;;;5.53;;
6356;SDS011;3211;53.452;-2.264;2023-03-12T09:20:54;25.40;;;4.60;;
6356;SDS011;3211;53.452;-2.264;2023-03-12T09:23:22;24.03;;;5.03;;
6356;SDS011;3211;53.452;-2.264;2023-03-12T09:25:49;26.27;;;5.27;;
6356;SDS011;3211;53.452;-2.264;2023-03-12T09:28:16;26.07;;;4.67;;
6356;SDS011;3211;53.452;-2.264;2023-03-12T09:30:44;25.93;;;5.07;;
6356;SDS011;3211;53.452;-2.264;2023-03-12T09:33:11;15.43;;;3.90;;
6356;SDS011;3211;53.452;-2.264;2023-03-12T09:35:43;25.50;;;4.40;;
6356;SDS011;3211;53.452;-2.264;2023-03-12T09:38:11;26.30;;;5.10;;
6356;SDS011;3211;53.452;-2.264;2023-03-12T09:40:42;27.80;;;5.03;;
6356;SDS011;3211;53.452;-2.264;2023-03-12T09:43:14;20.40;;;4.70;;
6356;SDS011;3211;53.452;-2.264;2023-03-12T09:45:47;19.57;;;5.27;;
6356;SDS011;3211;53.452;-2.264;2023-03-12T09:48:16;14.47;;;4.23;;
6356;SDS011;3211;53.452;-2.264;2023-03-12T09:50:46;27.93;;;4.40;;
6356;SDS011;3211;53.452;-2.264;2023-03-12T09:53:16;22.03;;;5.30;;
6356;SDS011;3211;53.452;-2.264;2023-03-12T09:55:51;22.30;;;4.73;;
6356;SDS011;3211;53.452;-2.264;2023-03-12T09:58:21;20.30;;;5.10;;
6356;SDS011;3211;53.452;-2.264;2023-03-12T10:00:52;24.53;;;4.57;;
6356;SDS011;3211;53.452;-2.264;2023-03-12T10:03:28;25.17;;;3.90;;
6356;SDS011;3211;53.452;-2.264;2023-03-12T10:06:15;30.17;;;4.50;;
6356;SDS011;3211;53.452;-2.264;2023-03-12T10:08:52;15.93;;;4.83;;
6356;SDS011;3211;53.452;-2.264;2023-03-12T10:11:30;24.87;;;4.70;;
6356;SDS011;3211;53.452;-2.264;2023-03-12T10:14:07;26.77;;;4.90;;
6356;SDS011;3211;53.452;-2.264;2023-03-12T10:16:53;21.97;;;5.20;;
6356;SDS011;3211;53.452;-2.264;2023-03-12T10:19:36;15.93;;;4.50;;
6356;SDS011;3211;53.452;-2.264;2023-03-12T10:22:16;19.57;;;6.00;;
6356;SDS011;3211;53.452;-2.264;2023-03-12T10:24:59;22.10;;;5.50;;
6356;SDS011;3211;53.452;-2.264;2023-03-12T10:27:33;17.67;;;4.67;;
6356;SDS011;3211;53.452;-2.264;2023-03-12T10:30:02;14.80;;;4.10;;
6356;SDS011;3211;53.452;-2.264;2023-03-12T10:32:39;18.70;;;4.30;;
6356;SDS011;3211;53.452;-2.264;2023-03-12T10:35:12;20.90;;;4.30;;
6356;SDS011;3211;53.452;-2.264;2023-03-12T10:37:42;17.83;;;4.13;;
6356;SDS011;3211;53.452;-2.264;2023-03-12T10:40:13;17.67;;;4.57;;
6356;SDS011;3211;53.452;-2.264;2023-03-12T10:42:41;26.80;;;5.87;;
6356;SDS011;3211;53.452;-2.264;2023-03-12T10:45:15;20.00;;;5.47;;
6356;SDS011;3211;53.452;-2.264;2023-03-12T10:47:49;18.83;;;4.67;;
6356;SDS011;3211;53.452;-2.264;2023-03-12T10:50:21;19.50;;;4.57;;
6356;SDS011;3211;53.452;-2.264;2023-03-12T10:52:52;18.50;;;4.63;;
6356;SDS011;3211;53.452;-2.264;2023-03-12T10:55:37;18.47;;;4.57;;
6356;SDS011;3211;53.452;-2.264;2023-03-12T10:58:04;10.07;;;3.80;;
6356;SDS011;3211;53.452;-2.264;2023-03-12T11:00:31;16.63;;;4.20;;
6356;SDS011;3211;53.452;-2.264;2023-03-12T11:02:59;24.03;;;5.03;;
6356;SDS011;3211;53.452;-2.264;2023-03-12T11:05:28;20.60;;;5.00;;
6356;SDS011;3211;53.452;-2.264;2023-03-12T11:07:59;17.60;;;4.10;;
6356;SDS011;3211;53.452;-2.264;2023-03-12T11:10:36;25.87;;;4.40;;
6356;SDS011;3211;53.452;-2.264;2023-03-12T11:13:19;10.57;;;3.40;;
6356;SDS011;3211;53.452;-2.264;2023-03-12T11:15:48;13.67;;;3.73;;
6356;SDS011;3211;53.452;-2.264;2023-03-12T11:18:27;24.43;;;4.50;;
6356;SDS011;3211;53.452;-2.264;2023-03-12T11:20:56;14.80;;;3.73;;
6356;SDS011;3211;53.452;-2.264;2023-03-12T11:23:41;18.77;;;5.00;;
6356;SDS011;3211;53.452;-2.264;2023-03-12T11:26:11;16.10;;;3.37;;
6356;SDS011;3211;53.452;-2.264;2023-03-12T11:28:42;12.67;;;3.67;;
6356;SDS011;3211;53.452;-2.264;2023-03-12T11:31:14;14.03;;;3.73;;
6356;SDS011;3211;53.452;-2.264;2023-03-12T11:33:48;16.20;;;3.60;;
6356;SDS011;3211;53.452;-2.264;2023-03-12T11:36:27;16.37;;;4.23;;
6356;SDS011;3211;53.452;-2.264;2023-03-12T11:39:07;17.33;;;4.00;;
6356;SDS011;3211;53.452;-2.264;2023-03-12T11:41:43;16.10;;;4.67;;
6356;SDS011;3211;53.452;-2.264;2023-03-12T11:44:25;13.20;;;4.17;;
6356;SDS011;3211;53.452;-2.264;2023-03-12T11:47:09;15.37;;;4.50;;
6356;SDS011;3211;53.452;-2.264;2023-03-12T11:49:49;14.77;;;3.57;;
6356;SDS011;3211;53.452;-2.264;2023-03-12T11:52:27;13.20;;;3.60;;
6356;SDS011;3211;53.452;-2.264;2023-03-12T11:55:08;13.30;;;4.63;;
6356;SDS011;3211;53.452;-2.264;2023-03-12T11:57:48;12.10;;;2.60;;
6356;SDS011;3211;53.452;-2.264;2023-03-12T12:00:24;11.43;;;3.50;;
6356;SDS011;3211;53.452;-2.264;2023-03-12T12:06:14;13.43;;;3.50;;
6356;SDS011;3211;53.452;-2.264;2023-03-12T12:08:57;15.27;;;3.87;;
6356;SDS011;3211;53.452;-2.264;2023-03-12T12:11:48;11.90;;;2.90;;
6356;SDS011;3211;53.452;-2.264;2023-03-12T12:14:29;16.03;;;3.93;;
6356;SDS011;3211;53.452;-2.264;2023-03-12T12:17:08;12.80;;;3.13;;
6356;SDS011;3211;53.452;-2.264;2023-03-12T12:19:49;15.33;;;3.63;;
6356;SDS011;3211;53.452;-2.264;2023-03-12T12:22:29;12.50;;;3.50;;
6356;SDS011;3211;53.452;-2.264;2023-03-12T12:25:13;11.67;;;3.80;;
6356;SDS011;3211;53.452;-2.264;2023-03-12T12:27:50;11.50;;;3.33;;
6356;SDS011;3211;53.452;-2.264;2023-03-12T12:30:36;11.60;;;3.60;;
6356;SDS011;3211;53.452;-2.264;2023-03-12T12:33:16;14.27;;;4.97;;
6356;SDS011;3211;53.452;-2.264;2023-03-12T12:35:53;12.47;;;3.70;;
6356;SDS011;3211;53.452;-2.264;2023-03-12T12:38:22;11.17;;;3.10;;
6356;SDS011;3211;53.452;-2.264;2023-03-12T12:40:55;10.80;;;3.63;;
6356;SDS011;3211;53.452;-2.264;2023-03-12T12:43:31;12.07;;;4.37;;
6356;SDS011;3211;53.452;-2.264;2023-03-12T12:46:03;10.67;;;3.30;;
6356;SDS011;3211;53.452;-2.264;2023-03-12T12:48:33;18.27;;;3.90;;
6356;SDS011;3211;53.452;-2.264;2023-03-12T12:51:03;19.30;;;4.10;;
6356;SDS011;3211;53.452;-2.264;2023-03-12T12:53:35;19.90;;;4.53;;
6356;SDS011;3211;53.452;-2.264;2023-03-12T12:56:08;17.13;;;3.77;;
6356;SDS011;3211;53.452;-2.264;2023-03-12T12:58:51;14.77;;;3.93;;
6356;SDS011;3211;53.452;-2.264;2023-03-12T13:01:40;16.80;;;4.07;;
6356;SDS011;3211;53.452;-2.264;2023-03-12T13:04:10;17.10;;;4.83;;
6356;SDS011;3211;53.452;-2.264;2023-03-12T13:06:57;18.50;;;3.93;;
6356;SDS011;3211;53.452;-2.264;2023-03-12T13:09:34;12.60;;;3.93;;
6356;SDS011;3211;53.452;-2.264;2023-03-12T13:12:11;17.20;;;4.10;;
6356;SDS011;3211;53.452;-2.264;2023-03-12T13:14:41;14.50;;;4.07;;
6356;SDS011;3211;53.452;-2.264;2023-03-12T13:17:29;15.20;;;3.37;;
6356;SDS011;3211;53.452;-2.264;2023-03-12T13:19:59;12.90;;;3.30;;
6356;SDS011;3211;53.452;-2.264;2023-03-12T13:22:44;13.73;;;3.70;;
6356;SDS011;3211;53.452;-2.264;2023-03-12T13:25:29;15.93;;;4.50;;
6356;SDS011;3211;53.452;-2.264;2023-03-12T13:28:25;12.87;;;3.57;;
6356;SDS011;3211;53.452;-2.264;2023-03-12T13:31:01;14.10;;;3.93;;
6356;SDS011;3211;53.452;-2.264;2023-03-12T13:33:37;17.40;;;3.87;;
6356;SDS011;3211;53.452;-2.264;2023-03-12T13:36:10;13.10;;;4.00;;
6356;SDS011;3211;53.452;-2.264;2023-03-12T13:38:52;16.47;;;4.20;;
6356;SDS011;3211;53.452;-2.264;2023-03-12T13:41:32;16.47;;;3.83;;
6356;SDS011;3211;53.452;-2.264;2023-03-12T13:46:59;14.80;;;4.73;;
6356;SDS011;3211;53.452;-2.264;2023-03-12T13:49:33;14.43;;;3.70;;
6356;SDS011;3211;53.452;-2.264;2023-03-12T13:52:17;17.27;;;3.80;;
6356;SDS011;3211;53.452;-2.264;2023-03-12T13:54:48;16.90;;;4.03;;
6356;SDS011;3211;53.452;-2.264;2023-03-12T13:57:24;18.73;;;3.93;;
6356;SDS011;3211;53.452;-2.264;2023-03-12T13:59:55;12.73;;;4.27;;
6356;SDS011;3211;53.452;-2.264;2023-03-12T14:02:25;15.97;;;3.57;;
6356;SDS011;3211;53.452;-2.264;2023-03-12T14:05:00;13.33;;;3.83;;
6356;SDS011;3211;53.452;-2.264;2023-03-12T14:07:34;16.43;;;4.27;;
6356;SDS011;3211;53.452;-2.264;2023-03-12T14:10:17;12.30;;;3.60;;
6356;SDS011;3211;53.452;-2.264;2023-03-12T14:13:00;15.77;;;3.90;;
6356;SDS011;3211;53.452;-2.264;2023-03-12T14:15:40;18.23;;;5.13;;
6356;SDS011;3211;53.452;-2.264;2023-03-12T14:18:17;12.43;;;4.17;;
6356;SDS011;3211;53.452;-2.264;2023-03-12T14:20:49;19.83;;;4.80;;
6356;SDS011;3211;53.452;-2.264;2023-03-12T14:23:19;13.23;;;3.30;;
6356;SDS011;3211;53.452;-2.264;2023-03-12T14:25:47;12.60;;;3.80;;
6356;SDS011;3211;53.452;-2.264;2023-03-12T14:28:18;16.10;;;4.53;;
6356;SDS011;3211;53.452;-2.264;2023-03-12T14:30:48;18.23;;;4.13;;
6356;SDS011;3211;53.452;-2.264;2023-03-12T14:33:23;15.70;;;3.87;;
6356;SDS011;3211;53.452;-2.264;2023-03-12T14:35:54;16.67;;;4.27;;
6356;SDS011;3211;53.452;-2.264;2023-03-12T14:38:24;17.20;;;4.00;;
6356;SDS011;3211;53.452;-2.264;2023-03-12T14:40:56;17.73;;;4.90;;
6356;SDS011;3211;53.452;-2.264;2023-03-12T14:43:27;14.37;;;4.20;;
6356;SDS011;3211;53.452;-2.264;2023-03-12T14:45:56;18.40;;;5.83;;
6356;SDS011;3211;53.452;-2.264;2023-03-12T14:48:27;16.10;;;3.30;;
6356;SDS011;3211;53.452;-2.264;2023-03-12T14:50:56;13.70;;;4.43;;
6356;SDS011;3211;53.452;-2.264;2023-03-12T14:53:25;12.77;;;3.87;;
6356;SDS011;3211;53.452;-2.264;2023-03-12T14:56:00;15.50;;;4.20;;
6356;SDS011;3211;53.452;-2.264;2023-03-12T14:58:32;14.77;;;4.20;;
6356;SDS011;3211;53.452;-2.264;2023-03-12T15:01:01;11.77;;;3.50;;
6356;SDS011;3211;53.452;-2.264;2023-03-12T15:03:32;13.40;;;3.90;;
6356;SDS011;3211;53.452;-2.264;2023-03-12T15:06:11;17.23;;;3.73;;
6356;SDS011;3211;53.452;-2.264;2023-03-12T15:08:44;13.23;;;4.23;;
6356;SDS011;3211;53.452;-2.264;2023-03-12T15:11:11;14.93;;;3.70;;
6356;SDS011;3211;53.452;-2.264;2023-03-12T15:13:38;11.13;;;3.43;;
6356;SDS011;3211;53.452;-2.264;2023-03-12T15:16:05;15.53;;;3.90;;